createdAt,value
2019-03-06T00:02:21.092Z,100504.13
2019-03-06T00:04:51.294Z,100508.13
2019-03-06T00:07:21.336Z,100505.16
2019-03-06T00:09:51.854Z,100506.30
2019-03-06T00:12:21.916Z,100512.12
2019-03-06T00:14:52.062Z,100515.91
2019-03-06T00:17:22.118Z,100506.30
2019-03-06T00:19:52.272Z,100512.27
2019-03-06T00:22:22.332Z,100513.06
2019-03-06T00:24:52.563Z,100513.39
2019-03-06T00:27:22.592Z,100511.13
2019-03-06T00:29:52.735Z,100509.41
2019-03-06T00:32:22.820Z,100505.41
2019-03-06T00:34:53.832Z,100513.16
2019-03-06T00:37:23.912Z,100517.69
2019-03-06T00:40:02.809Z,100518.87
2019-03-06T00:42:35.885Z,100509.70
2019-03-06T00:45:07.714Z,100515.91
2019-03-06T00:47:37.753Z,100516.95
2019-03-06T00:50:07.963Z,100517.38
2019-03-06T00:52:37.988Z,100510.10
2019-03-06T00:55:08.090Z,100526.36
2019-03-06T00:57:38.080Z,100527.29
2019-03-06T01:00:08.256Z,100527.82
2019-03-06T01:02:38.347Z,100525.36
2019-03-06T01:05:08.498Z,100529.13
2019-03-06T01:07:38.604Z,100522.17
2019-03-06T01:10:09.866Z,100530.58
2019-03-06T01:12:40.174Z,100520.34
2019-03-06T01:15:11.130Z,100519.31
2019-03-06T01:17:41.331Z,100524.73
2019-03-06T01:20:12.256Z,100522.70
2019-03-06T01:22:42.358Z,100527.71
2019-03-06T01:25:12.575Z,100526.39
2019-03-06T01:27:42.628Z,100528.75
2019-03-06T01:30:14.551Z,100534.27
2019-03-06T01:32:45.657Z,100533.14
2019-03-06T01:35:37.524Z,100527.61
2019-03-06T01:38:19.740Z,100527.21
2019-03-06T01:41:21.212Z,100519.52
2019-03-06T01:43:56.025Z,100519.23
2019-03-06T01:46:26.458Z,100523.91
2019-03-06T01:48:56.604Z,100520.23
2019-03-06T01:51:26.791Z,100523.30
2019-03-06T01:53:56.955Z,100527.58
2019-03-06T01:56:26.971Z,100522.67
2019-03-06T01:58:57.038Z,100528.38
2019-03-06T02:01:27.111Z,100522.86
2019-03-06T02:03:57.196Z,100526.23
2019-03-06T02:06:27.186Z,100522.89
2019-03-06T02:08:57.271Z,100525.84
2019-03-06T02:11:27.323Z,100516.55
2019-03-06T02:13:57.298Z,100524.91
2019-03-06T02:16:27.728Z,100525.55
2019-03-06T02:18:57.781Z,100520.12
2019-03-06T02:21:27.817Z,100527.58
2019-03-06T02:23:57.879Z,100516.34
2019-03-06T02:26:28.160Z,100511.02
2019-03-06T02:28:58.222Z,100521.05
2019-03-06T02:31:28.225Z,100516.23
2019-03-06T02:33:58.278Z,100511.11
2019-03-06T02:36:28.303Z,100511.74
2019-03-06T02:38:58.354Z,100508.34
2019-03-06T02:41:28.398Z,100504.38
2019-03-06T02:43:58.406Z,100500.07
2019-03-06T02:46:28.445Z,100494.03
2019-03-06T02:48:58.439Z,100494.98
2019-03-06T02:51:28.464Z,100491.20
2019-03-06T02:53:58.479Z,100493.33
2019-03-06T02:56:28.620Z,100488.31
2019-03-06T02:59:03.613Z,100482.93
2019-03-06T03:02:07.650Z,100482.73
2019-03-06T03:04:45.698Z,100479.33
2019-03-06T03:07:18.124Z,100484.06
2019-03-06T03:09:48.189Z,100481.59
2019-03-06T03:12:18.257Z,100478.33
2019-03-06T03:14:48.346Z,100477.71
2019-03-06T03:17:18.393Z,100486.90
2019-03-06T03:19:48.579Z,100493.15
2019-03-06T03:22:18.684Z,100495.38
2019-03-06T03:24:48.771Z,100492.02
2019-03-06T03:27:18.858Z,100491.60
2019-03-06T03:29:48.931Z,100484.36
2019-03-06T03:32:19.178Z,100471.56
2019-03-06T03:34:49.285Z,100474.76
2019-03-06T03:37:19.588Z,100469.93
2019-03-06T03:39:49.931Z,100466.67
2019-03-06T03:42:20.102Z,100471.66
2019-03-06T03:44:50.242Z,100470.97
2019-03-06T03:47:20.414Z,100461.85
2019-03-06T03:49:50.592Z,100463.95
2019-03-06T03:52:20.935Z,100465.33
2019-03-06T03:54:50.931Z,100460.75
2019-03-06T03:57:20.987Z,100469.30
2019-03-06T03:59:51.084Z,100467.39
2019-03-06T04:02:21.180Z,100469.12
2019-03-06T04:04:51.657Z,100473.11
2019-03-06T04:07:21.902Z,100479.63
2019-03-06T04:09:51.911Z,100479.14
2019-03-06T04:12:21.968Z,100473.39
2019-03-06T04:14:52.024Z,100476.98
2019-03-06T04:17:22.058Z,100459.00
2019-03-06T04:19:52.102Z,100457.77
2019-03-06T04:22:22.143Z,100455.72
2019-03-06T04:24:52.214Z,100453.87
2019-03-06T04:27:22.221Z,100455.30
2019-03-06T04:29:52.282Z,100448.77
2019-03-06T04:32:22.575Z,100448.99
2019-03-06T04:34:52.743Z,100454.09
2019-03-06T04:37:22.762Z,100449.50
2019-03-06T04:39:52.816Z,100447.54
2019-03-06T04:42:22.848Z,100449.07
2019-03-06T04:44:52.990Z,100447.23
2019-03-06T04:47:22.980Z,100445.61
2019-03-06T04:49:53.169Z,100443.68
2019-03-06T04:52:23.152Z,100443.05
2019-03-06T04:54:53.218Z,100442.22
2019-03-06T04:57:23.241Z,100434.88
2019-03-06T04:59:53.306Z,100426.08
2019-03-06T05:02:23.327Z,100427.20
2019-03-06T05:04:53.362Z,100428.53
2019-03-06T05:07:23.652Z,100431.09
2019-03-06T05:09:53.726Z,100434.35
2019-03-06T05:12:23.712Z,100434.78
2019-03-06T05:14:53.842Z,100436.70
2019-03-06T05:17:54.956Z,100437.74
2019-03-06T05:20:24.972Z,100431.59
2019-03-06T05:22:55.152Z,100441.92
2019-03-06T05:25:25.316Z,100439.47
2019-03-06T05:27:55.318Z,100437.02
2019-03-06T05:30:27.013Z,100439.16
2019-03-06T05:32:58.072Z,100434.67
2019-03-06T05:36:14.180Z,100429.47
2019-03-06T05:38:51.552Z,100422.72
2019-03-06T05:41:21.620Z,100423.95
2019-03-06T05:43:51.665Z,100425.27
2019-03-06T05:46:21.704Z,100418.73
2019-03-06T05:48:51.743Z,100409.43
2019-03-06T05:51:21.756Z,100406.45
2019-03-06T05:53:51.774Z,100405.45
2019-03-06T05:56:21.829Z,100397.97
2019-03-06T05:58:51.849Z,100405.22
2019-03-06T06:01:21.932Z,100394.81
2019-03-06T06:03:51.935Z,100396.55
2019-03-06T06:06:21.981Z,100392.16
2019-03-06T06:08:52.010Z,100387.14
2019-03-06T06:11:21.994Z,100380.99
2019-03-06T06:13:52.020Z,100379.87
2019-03-06T06:16:22.012Z,100375.17
2019-03-06T06:18:52.030Z,100369.13
2019-03-06T06:21:37.848Z,100366.41
2019-03-06T06:24:12.384Z,100357.41
2019-03-06T06:26:42.364Z,100354.36
2019-03-06T06:29:12.385Z,100357.81
2019-03-06T06:31:42.400Z,100355.45
2019-03-06T06:34:12.436Z,100353.09
2019-03-06T06:36:42.454Z,100359.88
2019-03-06T06:39:12.524Z,100359.34
2019-03-06T06:41:44.791Z,100365.38
2019-03-06T06:44:14.922Z,100354.42
2019-03-06T06:46:45.820Z,100363.52
2019-03-06T06:49:18.974Z,100365.78
2019-03-06T06:52:24.505Z,100374.23
2019-03-06T06:55:27.270Z,100366.94
2019-03-06T06:58:40.978Z,100356.77
2019-03-06T07:01:47.916Z,100349.39
2019-03-06T07:04:48.714Z,100345.20
2019-03-06T07:07:49.569Z,100337.34
2019-03-06T07:10:37.535Z,100336.72
2019-03-06T07:13:16.080Z,100336.27
2019-03-06T07:16:08.130Z,100331.89
2019-03-06T07:19:15.088Z,100330.12
2019-03-06T07:22:13.681Z,100333.69
2019-03-06T07:25:09.147Z,100327.61
2019-03-06T07:27:53.055Z,100322.09
2019-03-06T07:30:48.284Z,100322.25
2019-03-06T07:33:37.013Z,100319.16
2019-03-06T07:36:26.011Z,100309.31
2019-03-06T07:39:18.170Z,100311.23
2019-03-06T07:41:55.604Z,100303.05
2019-03-06T07:44:49.488Z,100303.36
2019-03-06T07:47:47.817Z,100309.10
2019-03-06T07:50:39.877Z,100304.91
2019-03-06T07:54:00.286Z,100297.66
2019-03-06T07:56:35.429Z,100289.44
2019-03-06T07:59:08.491Z,100284.99
2019-03-06T08:06:27.809Z,100290.23
2019-03-06T08:24:51.233Z,100261.88
2019-03-06T08:56:33.677Z,100213.61
2019-03-06T09:03:19.227Z,100218.64
2019-03-06T09:10:42.699Z,100214.36
2019-03-06T09:34:18.546Z,100181.62
2019-03-06T09:50:47.182Z,100155.67
2019-03-06T09:54:26.227Z,100148.49
2019-03-06T10:12:00.373Z,100104.98
2019-03-06T10:15:55.487Z,100101.25
2019-03-06T10:19:17.858Z,100105.13
2019-03-06T10:22:41.541Z,100096.34
2019-03-06T10:25:40.528Z,100079.61
2019-03-06T10:31:42.955Z,100066.95
2019-03-06T10:34:28.778Z,100076.32
2019-03-06T10:37:22.687Z,100072.22
2019-03-06T10:41:07.371Z,100065.52
2019-03-06T10:44:04.490Z,100069.34
2019-03-06T10:50:51.785Z,100055.51
2019-03-06T10:54:31.500Z,100049.92
2019-03-06T10:57:06.451Z,100042.62
2019-03-06T10:59:45.910Z,100043.41
2019-03-06T11:16:27.660Z,100040.55
2019-03-06T11:19:54.189Z,100024.28
2019-03-06T11:23:01.950Z,100012.15
2019-03-06T11:25:49.704Z,100004.52
2019-03-06T11:28:23.444Z,100001.54
2019-03-06T11:34:44.161Z,99988.30
2019-03-06T11:39:30.491Z,99980.52
2019-03-06T11:42:58.969Z,99966.53
2019-03-06T11:57:50.590Z,99925.17
2019-03-06T12:00:57.440Z,99923.00
2019-03-06T12:03:47.796Z,99908.30
2019-03-06T12:06:40.837Z,99922.54
2019-03-06T12:09:33.744Z,99918.41
2019-03-06T12:12:07.297Z,99911.21
2019-03-06T12:14:40.736Z,99913.03
2019-03-06T12:17:13.976Z,99911.48
2019-03-06T12:19:48.754Z,99903.49
2019-03-06T12:22:18.909Z,99897.05
2019-03-06T12:24:53.567Z,99902.65
2019-03-06T12:27:33.767Z,99895.74
2019-03-06T12:37:57.267Z,99871.44
2019-03-06T12:40:19.580Z,99886.98
2019-03-06T12:40:22.498Z,99861.41
2019-03-06T12:43:00.952Z,99850.72
2019-03-06T12:49:53.598Z,99840.27
2019-03-06T12:54:09.254Z,99832.69
2019-03-06T12:55:24.724Z,99816.09
2019-03-06T13:01:25.156Z,99796.54
2019-03-06T13:05:34.328Z,99784.45
2019-03-06T13:08:49.810Z,99776.66
2019-03-06T13:15:24.252Z,99754.96
2019-03-06T13:17:55.190Z,99738.61
2019-03-06T13:20:25.337Z,99726.53
2019-03-06T13:28:16.097Z,99735.15
2019-03-06T13:33:24.801Z,99712.03
2019-03-06T13:46:22.149Z,99690.56
2019-03-06T13:49:48.868Z,99685.75
2019-03-06T13:57:13.196Z,99678.48
2019-03-06T14:00:33.009Z,99670.16
2019-03-06T14:03:29.083Z,99664.78
2019-03-06T14:11:27.795Z,99650.84
2019-03-06T14:12:45.032Z,99650.84
2019-03-06T14:28:07.786Z,99653.53
2019-03-06T14:30:51.179Z,99641.70
2019-03-06T14:37:39.767Z,99627.18
2019-03-06T14:48:57.521Z,99585.00
2019-03-06T14:52:09.078Z,99572.38
2019-03-06T14:54:54.037Z,99565.92
2019-03-06T14:58:14.021Z,99558.94
2019-03-06T15:04:57.284Z,99538.23
2019-03-06T15:08:22.541Z,99534.20
2019-03-06T15:14:20.680Z,99525.34
2019-03-06T15:14:36.104Z,99510.03
2019-03-06T15:24:44.567Z,99508.69
2019-03-06T15:28:12.039Z,99493.36
2019-03-06T15:31:26.714Z,99494.17
2019-03-06T15:34:11.228Z,99489.35
2019-03-06T15:37:29.184Z,99486.64
2019-03-06T15:44:02.638Z,99484.75
2019-03-06T15:47:02.806Z,99473.77
2019-03-06T16:04:02.610Z,99429.68
2019-03-06T16:07:17.417Z,99423.23
2019-03-06T16:10:28.882Z,99425.65
2019-03-06T16:13:15.661Z,99436.13
2019-03-06T16:16:57.430Z,99428.63
2019-03-06T16:22:05.584Z,99435.63
2019-03-06T16:23:27.536Z,99433.20
2019-03-06T16:32:32.614Z,99430.78
2019-03-06T16:35:06.038Z,99426.50
2019-03-06T16:37:36.966Z,99434.81
2019-03-06T16:40:11.203Z,99425.41
2019-03-06T16:42:41.443Z,99427.83
2019-03-06T16:45:12.090Z,99420.30
2019-03-06T16:47:42.182Z,99415.48
2019-03-06T16:50:17.881Z,99421.09
2019-03-06T16:52:54.574Z,99425.15
2019-03-06T16:55:25.025Z,99420.84
2019-03-06T16:57:55.362Z,99421.37
2019-03-06T17:00:27.195Z,99415.45
2019-03-06T17:02:57.546Z,99421.91
2019-03-06T17:05:27.714Z,99425.66
2019-03-06T17:07:58.039Z,99418.95
2019-03-06T17:10:28.305Z,99420.06
2019-03-06T17:12:58.443Z,99414.15
2019-03-06T17:15:28.943Z,99418.70
2019-03-06T17:17:59.028Z,99419.81
2019-03-06T17:20:29.132Z,99409.88
2019-03-06T17:22:59.315Z,99417.66
2019-03-06T17:25:29.660Z,99409.62
2019-03-06T17:27:59.719Z,99409.62
2019-03-06T17:30:29.783Z,99407.75
2019-03-06T17:33:08.788Z,99404.52
2019-03-06T17:35:39.059Z,99416.61
2019-03-06T17:38:09.935Z,99415.56
2019-03-06T17:40:40.427Z,99416.34
2019-03-06T17:43:10.541Z,99418.52
2019-03-06T17:45:40.690Z,99419.86
2019-03-06T17:48:11.574Z,99419.05
2019-03-06T17:50:41.635Z,99416.12
2019-03-06T17:53:12.101Z,99414.52
2019-03-06T17:55:42.389Z,99415.85
2019-03-06T17:58:12.487Z,99413.15
2019-03-06T18:00:45.377Z,99413.17
2019-03-06T18:03:18.557Z,99410.50
2019-03-06T18:05:48.640Z,99403.48
2019-03-06T18:08:18.739Z,99394.64
2019-03-06T18:10:48.806Z,99391.69
2019-03-06T18:13:18.923Z,99393.05
2019-03-06T18:15:48.923Z,99379.88
2019-03-06T18:18:19.040Z,99380.16
2019-03-06T18:20:49.082Z,99366.73
2019-03-06T18:23:19.178Z,99362.44
2019-03-06T18:25:49.637Z,99362.17
2019-03-06T18:28:19.735Z,99356.80
2019-03-06T18:30:49.911Z,99361.36
2019-03-06T18:33:20.012Z,99352.80
2019-03-06T18:35:50.443Z,99346.36
2019-03-06T18:38:20.556Z,99342.86
2019-03-06T18:40:50.721Z,99335.63
2019-03-06T18:43:21.249Z,99333.20
2019-03-06T18:45:51.485Z,99327.56
2019-03-06T18:48:21.607Z,99336.16
2019-03-06T18:50:51.744Z,99328.39
2019-03-06T18:53:22.219Z,99323.03
2019-03-06T18:55:52.310Z,99325.17
2019-03-06T18:58:22.469Z,99317.93
2019-03-06T19:00:52.595Z,99308.81
2019-03-06T19:03:22.695Z,99307.20
2019-03-06T19:05:52.815Z,99307.98
2019-03-06T19:08:31.128Z,99302.63
2019-03-06T19:10:54.700Z,99305.31
2019-03-06T19:13:24.773Z,99299.95
2019-03-06T19:15:54.856Z,99307.19
2019-03-06T19:18:25.062Z,99295.66
2019-03-06T19:20:55.471Z,99302.40
2019-03-06T19:23:25.586Z,99298.90
2019-03-06T19:25:55.727Z,99293.52
2019-03-06T19:28:25.799Z,99292.44
2019-03-06T19:30:55.909Z,99284.41
2019-03-06T19:33:26.021Z,99284.13
2019-03-06T19:35:56.131Z,99282.28
2019-03-06T19:38:30.707Z,99286.83
2019-03-06T19:41:03.659Z,99275.57
2019-03-06T19:43:42.376Z,99267.80
2019-03-06T19:46:12.769Z,99268.61
2019-03-06T19:48:42.995Z,99265.36
2019-03-06T19:51:13.169Z,99264.84
2019-03-06T19:53:43.238Z,99256.80
2019-03-06T19:56:13.421Z,99255.45
2019-03-06T19:58:45.255Z,99254.64
2019-03-06T20:01:16.677Z,99248.75
2019-03-06T20:03:50.082Z,99248.49
2019-03-06T20:06:26.793Z,99250.36
2019-03-06T20:08:58.717Z,99249.53
2019-03-06T20:11:30.929Z,99242.55
2019-03-06T20:14:02.718Z,99246.31
2019-03-06T20:16:32.817Z,99244.17
2019-03-06T20:19:02.967Z,99253.27
2019-03-06T20:21:33.207Z,99241.20
2019-03-06T20:24:06.036Z,99235.34
2019-03-06T20:26:37.920Z,99229.16
2019-03-06T20:29:09.139Z,99222.73
2019-03-06T20:31:39.207Z,99222.45
2019-03-06T20:34:09.280Z,99221.65
2019-03-06T20:36:39.339Z,99217.63
2019-03-06T20:39:09.555Z,99218.39
2019-03-06T20:41:39.622Z,99213.30
2019-03-06T20:44:09.720Z,99213.05
2019-03-06T20:46:39.775Z,99209.56
2019-03-06T20:49:09.892Z,99207.17
2019-03-06T20:51:39.983Z,99206.61
2019-03-06T20:54:10.045Z,99204.47
2019-03-06T20:56:40.094Z,99201.77
2019-03-06T20:59:10.148Z,99194.00
2019-03-06T21:01:40.196Z,99186.47
2019-03-06T21:04:22.034Z,99182.98
2019-03-06T21:07:02.357Z,99174.67
2019-03-06T21:09:32.622Z,99171.49
2019-03-06T21:12:04.720Z,99174.19
2019-03-06T21:14:34.850Z,99167.49
2019-03-06T21:17:04.886Z,99160.52
2019-03-06T21:19:42.418Z,99148.19
2019-03-06T21:22:12.448Z,99154.63
2019-03-06T21:24:45.428Z,99145.75
2019-03-06T21:27:23.833Z,99150.05
2019-03-06T21:29:54.868Z,99147.09
2019-03-06T21:32:25.141Z,99151.39
2019-03-06T21:34:55.386Z,99147.11
2019-03-06T21:37:25.559Z,99146.84
2019-03-06T21:39:57.961Z,99140.67
2019-03-06T21:42:27.988Z,99132.94
2019-03-06T21:45:02.879Z,99135.08
2019-03-06T21:47:32.934Z,99135.87
2019-03-06T21:50:03.000Z,99139.92
2019-03-06T21:52:33.040Z,99131.30
2019-03-06T21:55:03.126Z,99139.08
2019-03-06T21:57:33.200Z,99135.89
2019-03-06T22:00:03.518Z,99133.19
2019-03-06T22:02:34.066Z,99136.95
2019-03-06T22:05:04.203Z,99129.42
2019-03-06T22:07:34.390Z,99121.39
2019-03-06T22:10:04.608Z,99129.95
2019-03-06T22:12:34.680Z,99129.45
2019-03-06T22:15:05.773Z,99126.20
2019-03-06T22:17:35.959Z,99116.83
2019-03-06T22:20:06.851Z,99118.43
2019-03-06T22:22:36.916Z,99125.41
2019-03-06T22:25:07.764Z,99117.63
2019-03-06T22:27:37.904Z,99102.36
2019-03-06T22:30:10.423Z,99115.75
2019-03-06T22:32:40.530Z,99105.04
2019-03-06T22:35:10.996Z,99105.28
2019-03-06T22:37:41.098Z,99123.79
2019-03-06T22:40:12.141Z,99101.00
2019-03-06T22:42:42.307Z,99103.09
2019-03-06T22:45:13.840Z,99094.81
2019-03-06T22:47:43.867Z,99098.00
2019-03-06T22:50:14.431Z,99094.78
2019-03-06T22:52:44.582Z,99088.60
2019-03-06T22:55:15.652Z,99091.59
2019-03-06T22:57:45.825Z,99086.72
2019-03-06T23:00:42.262Z,99084.29
2019-03-06T23:03:13.168Z,99071.16
2019-03-06T23:05:43.342Z,99077.88
2019-03-06T23:08:13.660Z,99064.69
2019-03-06T23:10:44.337Z,99053.20
2019-03-06T23:13:14.467Z,99056.69
2019-03-06T23:15:44.851Z,99051.88
2019-03-06T23:18:14.866Z,99057.77
2019-03-06T23:20:44.982Z,99043.50
2019-03-06T23:23:15.062Z,99034.41
2019-03-06T23:25:45.277Z,99044.87
2019-03-06T23:28:15.512Z,99047.58
2019-03-06T23:30:45.654Z,99051.03
2019-03-06T23:33:15.792Z,99048.08
2019-03-06T23:35:45.862Z,99047.58
2019-03-06T23:38:15.987Z,99043.81
2019-03-06T23:40:46.158Z,99045.69
2019-03-06T23:43:16.363Z,99041.93
2019-03-06T23:45:46.432Z,99041.37
2019-03-06T23:48:16.489Z,99034.36
2019-03-06T23:50:47.218Z,99038.67
2019-03-06T23:53:19.959Z,99024.16
2019-03-06T23:55:50.107Z,99024.14
2019-03-06T23:58:20.218Z,99023.60
